Time;durP1;ratioP1;P1;durP2;ratioP2;P2;SDS_P1;SDS_P2;PMS_P1;PMS_P2;Temp;Humidity;BMP_temperature;BMP_pressure;BME280_temperature;BME280_humidity;BME280_pressure;Samples;Min_cycle;Max_cycle;Signal;HPM_P1;HPM_P2
2020/12/26 00:01:17;;;;;;;4.30;2.57;;;;;;;2.49;100.00;99518.27;1861073;76;21178;-76
2020/12/26 00:03:45;;;;;;;4.37;3.03;;;;;;;2.43;100.00;99522.81;1860279;76;21032;-75
2020/12/26 00:06:16;;;;;;;4.47;2.60;;;;;;;2.39;100.00;99512.02;1861124;76;20894;-75
2020/12/26 00:08:44;;;;;;;4.63;2.70;;;;;;;2.36;100.00;99510.97;1762438;81;21079;-76
2020/12/26 00:11:14;;;;;;;5.97;2.27;;;;;;;2.30;100.00;99508.81;1762584;81;21027;-75
2020/12/26 00:13:43;;;;;;;3.87;2.20;;;;;;;2.25;100.00;99507.39;1762635;81;21547;-76
2020/12/26 00:16:12;;;;;;;1.93;1.83;;;;;;;2.24;100.00;99508.85;1762482;81;20936;-76
2020/12/26 00:18:42;;;;;;;3.40;2.73;;;;;;;2.21;100.00;99498.44;1762661;81;21173;-74
2020/12/26 00:21:18;;;;;;;2.20;1.93;;;;;;;2.24;100.00;99495.02;1845274;76;26614;-76
2020/12/26 00:23:46;;;;;;;3.50;2.13;;;;;;;2.18;100.00;99495.55;1815546;78;20937;-75
2020/12/26 00:26:15;;;;;;;5.63;2.93;;;;;;;2.17;100.00;99491.18;1815533;79;21410;-75
2020/12/26 00:28:43;;;;;;;5.80;3.53;;;;;;;2.16;100.00;99488.17;1815528;79;21011;-75
2020/12/26 00:31:16;;;;;;;3.33;2.70;;;;;;;2.12;100.00;99491.22;1815511;79;20957;-75
2020/12/26 00:33:44;;;;;;;2.10;1.87;;;;;;;2.07;100.00;99499.60;1728887;81;21024;-76
2020/12/26 00:36:13;;;;;;;1.97;1.57;;;;;;;2.03;100.00;99498.18;1728212;83;21032;-76
2020/12/26 00:38:41;;;;;;;3.13;2.30;;;;;;;2.01;100.00;99498.30;1728384;83;21424;-76
2020/12/26 00:41:13;;;;;;;3.47;1.97;;;;;;;2.00;100.00;99503.77;1728046;83;21048;-75
2020/12/26 00:43:41;;;;;;;2.93;2.50;;;;;;;1.98;100.00;99494.55;1728382;83;21008;-74
2020/12/26 00:46:10;;;;;;;3.70;2.00;;;;;;;1.98;100.00;99492.39;1726570;83;21049;-75
2020/12/26 00:48:38;;;;;;;6.03;3.53;;;;;;;1.98;100.00;99495.89;1699343;83;21008;-75
2020/12/26 00:51:12;;;;;;;10.07;4.10;;;;;;;1.96;100.00;99493.84;1700482;83;22273;-75
2020/12/26 00:53:40;;;;;;;2.50;2.30;;;;;;;1.95;100.00;99500.63;1724810;83;21041;-76
2020/12/26 00:56:09;;;;;;;9.43;4.70;;;;;;;1.91;100.00;99506.72;1724880;83;21739;-76
2020/12/26 00:58:38;;;;;;;3.93;2.77;;;;;;;1.90;100.00;99507.21;1724650;83;20981;-75
2020/12/26 01:01:06;;;;;;;8.73;4.37;;;;;;;1.89;100.00;99506.88;1724743;83;21009;-76
2020/12/26 01:03:35;;;;;;;15.37;6.80;;;;;;;1.89;100.00;99514.00;1721275;83;21845;-76
2020/12/26 01:06:04;;;;;;;13.07;6.53;;;;;;;1.88;100.00;99518.49;1724644;83;20989;-76
2020/12/26 01:08:32;;;;;;;12.70;5.00;;;;;;;1.85;100.00;99520.08;1724765;83;21186;-75
2020/12/26 01:10:59;;;;;;;16.57;7.80;;;;;;;1.84;100.00;99527.73;1724688;83;21084;-75
2020/12/26 01:13:28;;;;;;;9.87;6.03;;;;;;;1.82;100.00;99519.48;1724569;83;21206;-76
2020/12/26 01:15:56;;;;;;;8.47;3.77;;;;;;;1.81;100.00;99520.48;1724727;83;21378;-73
2020/12/26 01:18:24;;;;;;;4.30;2.83;;;;;;;1.79;100.00;99515.73;1724793;81;21124;-75
2020/12/26 01:20:52;;;;;;;5.67;3.40;;;;;;;1.79;100.00;99501.08;1741653;81;21054;-75
2020/12/26 01:23:20;;;;;;;3.70;2.60;;;;;;;1.78;100.00;99495.41;1748554;82;21046;-74
2020/12/26 01:25:50;;;;;;;5.50;3.10;;;;;;;1.79;100.00;99497.95;1748541;82;21508;-75
2020/12/26 01:28:17;;;;;;;9.33;3.90;;;;;;;1.80;100.00;99494.28;1748588;82;21365;-76
2020/12/26 01:30:45;;;;;;;2.20;2.00;;;;;;;1.81;100.00;99489.33;1757730;81;21032;-75
2020/12/26 01:33:13;;;;;;;3.37;2.30;;;;;;;1.82;100.00;99486.16;1795651;80;21064;-75
2020/12/26 01:35:41;;;;;;;6.87;3.40;;;;;;;1.84;100.00;99485.55;1764028;81;20993;-75
2020/12/26 01:38:09;;;;;;;9.43;4.17;;;;;;;1.84;100.00;99490.41;1795538;80;21021;-75
2020/12/26 01:40:38;;;;;;;3.93;1.83;;;;;;;1.84;100.00;99492.20;1764108;81;21199;-75
2020/12/26 01:43:06;;;;;;;3.13;1.63;;;;;;;1.82;100.00;99491.50;1795332;80;20961;-75
2020/12/26 01:45:33;;;;;;;1.83;1.53;;;;;;;1.83;100.00;99494.53;1769673;79;21030;-75
2020/12/26 01:48:03;;;;;;;1.00;1.00;;;;;;;1.81;100.00;99489.33;1831851;78;20924;-74
2020/12/26 01:50:31;;;;;;;3.57;2.30;;;;;;;1.84;100.00;99489.54;1831840;78;20973;-75
2020/12/26 01:52:58;;;;;;;3.23;1.97;;;;;;;1.85;100.00;99496.58;1799095;79;21199;-75
2020/12/26 01:55:27;;;;;;;4.17;2.20;;;;;;;1.85;100.00;99500.58;1831732;78;21551;-75
2020/12/26 01:57:55;;;;;;;5.30;2.87;;;;;;;1.88;100.00;99496.33;1799178;79;20921;-75
2020/12/26 02:00:22;;;;;;;14.90;5.97;;;;;;;1.89;100.00;99501.53;1831834;78;21538;-74
2020/12/26 02:02:52;;;;;;;15.73;6.33;;;;;;;1.88;100.00;99504.33;1799102;79;21008;-75
2020/12/26 02:05:21;;;;;;;14.07;5.70;;;;;;;1.85;100.00;99510.75;1831849;78;21510;-74
2020/12/26 02:07:51;;;;;;;16.23;7.27;;;;;;;1.82;100.00;99507.49;1795224;79;21004;-75
2020/12/26 02:10:18;;;;;;;17.03;9.40;;;;;;;1.80;100.00;99508.95;1831769;78;21032;-74
2020/12/26 02:12:47;;;;;;;12.57;8.00;;;;;;;1.78;100.00;99510.06;1799185;79;21462;-75
2020/12/26 02:15:15;;;;;;;14.23;7.57;;;;;;;1.77;100.00;99512.36;1811069;79;20939;-75
2020/12/26 02:17:43;;;;;;;7.90;5.00;;;;;;;1.75;100.00;99511.15;1799147;79;21798;-75
2020/12/26 02:20:11;;;;;;;10.43;5.50;;;;;;;1.75;100.00;99512.48;1825336;78;21033;-74
2020/12/26 02:22:39;;;;;;;15.83;6.10;;;;;;;1.76;100.00;99510.69;1790339;80;21459;-75
2020/12/26 02:25:09;;;;;;;11.77;5.30;;;;;;;1.76;100.00;99508.86;1776448;79;20926;-75
2020/12/26 02:27:36;;;;;;;17.47;5.70;;;;;;;1.76;100.00;99508.86;1790295;80;20993;-75
2020/12/26 02:30:04;;;;;;;10.23;5.10;;;;;;;1.77;100.00;99514.56;1811043;79;21812;-75
2020/12/26 02:32:32;;;;;;;13.57;6.20;;;;;;;1.76;100.00;99511.52;1789968;80;20957;-75
2020/12/26 02:35:01;;;;;;;12.63;5.63;;;;;;;1.75;100.00;99517.81;1810993;79;20981;-74
2020/12/26 02:37:28;;;;;;;7.53;4.93;;;;;;;1.72;100.00;99522.09;1790182;80;21059;-75
2020/12/26 02:39:56;;;;;;;7.87;4.80;;;;;;;1.70;100.00;99522.21;1811019;79;21580;-75
2020/12/26 02:42:24;;;;;;;11.27;4.47;;;;;;;1.69;100.00;99517.00;1790240;80;21231;-75
2020/12/26 02:44:52;;;;;;;5.17;3.37;;;;;;;1.66;100.00;99504.76;1810965;79;21019;-74
2020/12/26 02:47:19;;;;;;;11.00;3.80;;;;;;;1.65;100.00;99508.41;1752751;80;21000;-76
2020/12/26 02:49:47;;;;;;;4.43;3.30;;;;;;;1.68;100.00;99508.63;1770861;81;21582;-74
2020/12/26 02:52:15;;;;;;;5.37;3.30;;;;;;;1.66;100.00;99514.58;1770784;81;20984;-75
2020/12/26 02:54:43;;;;;;;6.87;3.30;;;;;;;1.64;100.00;99514.70;1770797;81;21200;-74
2020/12/26 02:57:10;;;;;;;6.20;3.63;;;;;;;1.64;100.00;99508.05;1770773;81;20993;-75
2020/12/26 02:59:38;;;;;;;3.83;2.57;;;;;;;1.66;100.00;99499.92;1770844;79;21598;-74
2020/12/26 03:02:06;;;;;;;9.27;4.33;;;;;;;1.65;100.00;99513.75;1770893;81;20937;-75
2020/12/26 03:04:34;;;;;;;10.10;4.37;;;;;;;1.66;100.00;99519.91;1771001;81;21597;-74
2020/12/26 03:07:02;;;;;;;15.53;6.33;;;;;;;1.63;100.00;99525.02;1770849;81;21017;-75
2020/12/26 03:09:30;;;;;;;10.63;4.87;;;;;;;1.64;100.00;99531.19;1770831;81;21554;-74
2020/12/26 03:11:58;;;;;;;11.73;5.07;;;;;;;1.63;100.00;99534.36;1770871;81;21068;-76
2020/12/26 03:14:27;;;;;;;5.63;3.30;;;;;;;1.62;100.00;99530.48;1770763;81;21603;-73
2020/12/26 03:16:54;;;;;;;5.23;3.73;;;;;;;1.59;100.00;99533.39;1770924;81;20929;-75
2020/12/26 03:19:22;;;;;;;8.77;4.23;;;;;;;1.58;100.00;99543.20;1770944;81;21663;-75
2020/12/26 03:21:50;;;;;;;9.73;5.00;;;;;;;1.58;100.00;99542.38;1773845;80;21020;-75
2020/12/26 03:24:18;;;;;;;9.83;4.67;;;;;;;1.55;100.00;99536.79;1774730;80;20886;-76
2020/12/26 03:26:46;;;;;;;7.87;3.93;;;;;;;1.52;100.00;99531.70;1774616;80;21449;-75
2020/12/26 03:29:13;;;;;;;8.73;4.67;;;;;;;1.47;100.00;99528.10;1774767;80;20937;-75
2020/12/26 03:31:41;;;;;;;9.30;4.23;;;;;;;1.44;100.00;99520.84;1774687;80;21889;-75
2020/12/26 03:34:09;;;;;;;9.57;4.57;;;;;;;1.42;100.00;99516.14;1774653;80;20960;-75
2020/12/26 03:36:37;;;;;;;5.47;2.90;;;;;;;1.39;100.00;99514.55;1774679;80;20886;-76
2020/12/26 03:39:05;;;;;;;9.07;4.73;;;;;;;1.41;100.00;99514.42;1774690;80;21434;-76
2020/12/26 03:41:33;;;;;;;12.47;4.20;;;;;;;1.42;100.00;99524.97;1774753;80;21040;-76
2020/12/26 03:44:01;;;;;;;16.10;5.50;;;;;;;1.44;100.00;99516.35;1774651;80;21205;-76
2020/12/26 03:46:28;;;;;;;8.77;4.57;;;;;;;1.43;100.00;99515.98;1774397;80;21559;-76
2020/12/26 03:48:56;;;;;;;16.57;5.70;;;;;;;1.43;100.00;99504.48;1743028;82;20981;-75
2020/12/26 03:51:25;;;;;;;19.97;6.47;;;;;;;1.42;100.00;99515.64;1769662;81;20993;-76
2020/12/26 03:53:53;;;;;;;12.60;5.67;;;;;;;1.42;100.00;99514.80;1743286;82;21033;-75
2020/12/26 03:56:21;;;;;;;15.47;5.53;;;;;;;1.41;100.00;99515.27;1774072;81;21176;-75
2020/12/26 03:58:49;;;;;;;17.67;6.50;;;;;;;1.41;100.00;99524.59;1743303;82;21016;-77
2020/12/26 04:01:17;;;;;;;8.23;3.73;;;;;;;1.40;100.00;99520.72;1774123;81;21052;-76
2020/12/26 04:03:44;;;;;;;13.47;6.40;;;;;;;1.39;100.00;99511.89;1743362;82;21562;-75
2020/12/26 04:06:13;;;;;;;16.57;7.60;;;;;;;1.40;100.00;99522.05;1773757;81;21012;-76
2020/12/26 04:08:41;;;;;;;15.70;6.47;;;;;;;1.38;100.00;99520.00;1743172;82;22281;-76
2020/12/26 04:11:09;;;;;;;22.10;8.17;;;;;;;1.34;100.00;99535.39;1773604;81;21048;-75
2020/12/26 04:13:38;;;;;;;12.30;5.53;;;;;;;1.30;100.00;99540.11;1743008;82;20929;-75
2020/12/26 04:16:11;;;;;;;9.87;4.37;;;;;;;1.28;100.00;99543.89;1773817;81;21383;-75
2020/12/26 04:18:39;;;;;;;9.30;5.43;;;;;;;1.26;100.00;99543.17;1727145;82;20941;-77
2020/12/26 04:21:08;;;;;;;13.90;5.57;;;;;;;1.25;100.00;99550.29;1769842;81;22209;-76
2020/12/26 04:23:37;;;;;;;12.87;5.37;;;;;;;1.22;100.00;99553.23;1734481;82;20946;-76
2020/12/26 04:26:10;;;;;;;7.53;4.70;;;;;;;1.19;100.00;99557.45;1764494;81;21001;-75
2020/12/26 04:28:37;;;;;;;9.58;3.90;;;;;;;1.14;100.00;99555.64;1734562;82;20926;-76
2020/12/26 04:31:05;;;;;;;5.13;3.27;;;;;;;1.10;100.00;99570.19;1764548;81;21120;-76
2020/12/26 04:33:33;;;;;;;5.43;3.23;;;;;;;1.05;100.00;99583.84;1734398;81;21378;-76
2020/12/26 04:36:00;;;;;;;5.40;3.30;;;;;;;1.04;100.00;99586.62;1764437;81;21017;-76
2020/12/26 04:38:28;;;;;;;8.07;4.40;;;;;;;1.04;100.00;99575.48;1764548;81;20930;-76
2020/12/26 04:40:57;;;;;;;13.37;4.37;;;;;;;1.04;100.00;99582.64;1764419;81;20994;-76
2020/12/26 04:43:26;;;;;;;6.23;3.80;;;;;;;0.98;100.00;99583.97;1734388;82;20981;-77
2020/12/26 04:45:55;;;;;;;6.00;4.13;;;;;;;0.91;100.00;99591.59;1764894;81;21213;-75
2020/12/26 04:48:24;;;;;;;4.23;3.33;;;;;;;0.87;100.00;99611.94;1766099;81;20963;-74
2020/12/26 04:50:59;;;;;;;6.37;4.07;;;;;;;0.86;100.00;99630.19;1766146;80;21018;-76
2020/12/26 04:53:33;;;;;;;7.40;4.07;;;;;;;0.84;100.00;99622.31;1766044;81;21026;-73
2020/12/26 04:56:02;;;;;;;5.03;3.70;;;;;;;0.83;100.00;99623.77;1766156;81;21576;-75
2020/12/26 04:58:31;;;;;;;5.27;3.23;;;;;;;0.80;100.00;99625.32;1766334;81;21274;-74
2020/12/26 05:01:00;;;;;;;9.00;4.13;;;;;;;0.75;100.00;99631.86;1766029;81;21026;-75
2020/12/26 05:03:28;;;;;;;4.37;3.13;;;;;;;0.71;100.00;99634.89;1766127;79;20975;-75
2020/12/26 05:06:04;;;;;;;5.37;3.10;;;;;;;0.68;100.00;99634.63;1766232;80;21014;-75
2020/12/26 05:08:33;;;;;;;5.83;3.37;;;;;;;0.65;100.00;99634.02;1700399;84;21167;-75
2020/12/26 05:11:01;;;;;;;5.80;3.33;;;;;;;0.60;100.00;99639.68;1700472;84;21636;-76
2020/12/26 05:13:29;;;;;;;5.27;3.80;;;;;;;0.55;100.00;99649.86;1700377;84;21226;-74
2020/12/26 05:15:57;;;;;;;6.93;3.67;;;;;;;0.52;100.00;99649.59;1700540;84;20953;-75
2020/12/26 05:18:24;;;;;;;4.60;3.20;;;;;;;0.50;100.00;99656.84;1700643;84;20925;-74
2020/12/26 05:20:53;;;;;;;4.23;2.97;;;;;;;0.45;100.00;99661.66;1701883;83;21187;-76
2020/12/26 05:23:20;;;;;;;3.93;2.67;;;;;;;0.40;100.00;99669.62;1704324;84;21678;-74
2020/12/26 05:25:50;;;;;;;5.27;3.33;;;;;;;0.37;100.00;99675.55;1708777;84;20941;-75
2020/12/26 05:28:21;;;;;;;3.20;2.67;;;;;;;0.33;100.00;99686.02;1708899;84;20996;-74
2020/12/26 05:30:56;;;;;;;2.40;2.13;;;;;;;0.34;100.00;99690.39;1845490;76;26614;-75
2020/12/26 05:33:30;;;;;;;3.23;2.73;;;;;;;0.24;100.00;99700.02;1815530;79;20976;-76
2020/12/26 05:36:04;;;;;;;5.13;3.50;;;;;;;0.20;100.00;99698.55;1765421;79;22278;-75
2020/12/26 05:38:42;;;;;;;7.20;3.50;;;;;;;0.19;100.00;99691.52;1852216;76;26967;-76
2020/12/26 05:41:10;;;;;;;6.47;4.20;;;;;;;0.10;100.00;99698.86;1783041;80;21339;-73
2020/12/26 05:43:39;;;;;;;10.53;6.37;;;;;;;0.06;100.00;99694.73;1819308;77;21367;-74
2020/12/26 05:46:09;;;;;;;16.33;6.90;;;;;;;0.02;100.00;99708.73;1842076;77;20902;-76
2020/12/26 05:48:36;;;;;;;8.50;4.43;;;;;;;-0.03;100.00;99705.06;1801904;78;21000;-74
2020/12/26 05:51:04;;;;;;;3.47;2.83;;;;;;;-0.04;100.00;99708.67;1821790;78;20954;-75
2020/12/26 05:53:32;;;;;;;7.57;5.40;;;;;;;-0.04;100.00;99709.16;1821861;77;20910;-73
2020/12/26 05:56:00;;;;;;;8.20;4.33;;;;;;;-0.04;100.00;99710.48;1821885;78;22367;-75
2020/12/26 05:58:28;;;;;;;10.67;5.23;;;;;;;-0.06;100.00;99715.08;1821655;78;20978;-75
2020/12/26 06:00:59;;;;;;;4.10;2.87;;;;;;;-0.06;100.00;99712.41;1821696;78;21044;-76
2020/12/26 06:03:30;;;;;;;4.97;3.10;;;;;;;-0.06;100.00;99717.24;1813619;78;21000;-75
2020/12/26 06:06:01;;;;;;;5.53;3.92;;;;;;;-0.05;100.00;99723.43;1838021;77;21019;-75
2020/12/26 06:08:30;;;;;;;8.67;5.30;;;;;;;-0.06;100.00;99718.57;1777763;80;21155;-75
2020/12/26 06:11:03;;;;;;;5.13;3.53;;;;;;;-0.06;100.00;99724.38;1777868;80;21526;-75
2020/12/26 06:13:32;;;;;;;4.67;3.17;;;;;;;-0.11;100.00;99713.23;1762329;80;21072;-69
2020/12/26 06:16:12;;;;;;;11.93;5.53;;;;;;;-0.11;100.00;99713.23;1757585;81;21186;-70
2020/12/26 06:18:50;;;;;;;6.67;3.97;;;;;;;-0.09;100.00;99722.80;1759047;80;21109;-73
2020/12/26 06:21:25;;;;;;;6.53;4.40;;;;;;;-0.05;100.00;99722.10;1830050;76;26645;-71
2020/12/26 06:23:54;;;;;;;5.67;3.40;;;;;;;-0.08;100.00;99733.78;1825506;77;21048;-71
2020/12/26 06:26:22;;;;;;;3.90;3.27;;;;;;;-0.10;100.00;99736.20;1787700;79;22109;-72
2020/12/26 06:28:50;;;;;;;5.40;3.93;;;;;;;-0.10;100.00;99745.02;1831512;77;20969;-74
2020/12/26 06:31:17;;;;;;;6.63;4.50;;;;;;;-0.10;100.00;99741.52;1792479;77;21032;-71
2020/12/26 06:33:48;;;;;;;5.93;2.47;;;;;;;-0.10;100.00;99739.70;1829974;77;20973;-72
2020/12/26 06:36:19;;;;;;;9.73;4.83;;;;;;;-0.09;100.00;99739.20;1821687;78;21044;-72
2020/12/26 06:38:47;;;;;;;11.07;5.90;;;;;;;-0.07;100.00;99739.48;1786643;79;21437;-74
2020/12/26 06:41:18;;;;;;;14.53;7.27;;;;;;;-0.06;100.00;99741.16;1791831;79;21001;-72
2020/12/26 06:43:49;;;;;;;14.53;8.40;;;;;;;-0.04;100.00;99741.05;1783057;80;21571;-71
2020/12/26 06:46:25;;;;;;;14.07;7.50;;;;;;;-0.04;100.00;99739.23;1821707;78;21005;-70
2020/12/26 06:51:25;;;;;;;8.07;5.50;;;;;;;0.03;100.00;99764.06;1738579;82;21379;-71
2020/12/26 06:54:04;;;;;;;16.53;9.10;;;;;;;0.10;100.00;99760.00;1823759;76;26611;-71
2020/12/26 06:56:43;;;;;;;18.53;9.20;;;;;;;0.08;100.00;99758.78;1779003;79;21031;-72
2020/12/26 06:59:12;;;;;;;15.87;7.03;;;;;;;0.11;100.00;99780.33;1748674;82;22520;-73
2020/12/26 07:01:44;;;;;;;10.03;6.63;;;;;;;0.11;100.00;99786.98;1763648;79;21015;-74
2020/12/26 07:04:19;;;;;;;9.10;5.13;;;;;;;0.12;100.00;99780.19;1730329;82;21599;-74
2020/12/26 07:06:53;;;;;;;5.03;3.37;;;;;;;0.13;100.00;99787.71;1735642;81;21021;-74
2020/12/26 07:09:42;;;;;;;16.87;7.50;;;;;;;0.13;100.00;99789.04;1728526;80;21133;-73
2020/12/26 07:14:51;;;;;;;31.15;11.93;;;;;;;0.16;100.00;99766.19;1826318;76;38216;-71
2020/12/26 07:20:02;;;;;;;20.83;9.43;;;;;;;0.23;100.00;99773.25;1861360;75;26880;-71
2020/12/26 07:22:30;;;;;;;18.47;8.27;;;;;;;0.23;100.00;99793.20;1779116;80;20970;-71
2020/12/26 07:25:08;;;;;;;17.37;8.13;;;;;;;0.24;100.00;99793.58;1751581;81;21809;-70
2020/12/26 07:27:38;;;;;;;11.87;6.43;;;;;;;0.22;100.00;99780.87;1710451;83;21026;-69
2020/12/26 07:30:19;;;;;;;15.47;6.33;;;;;;;0.21;100.00;99773.84;1718447;83;21033;-70
2020/12/26 07:32:50;;;;;;;9.47;6.10;;;;;;;0.20;100.00;99785.47;1764840;81;21053;-71
2020/12/26 07:35:26;;;;;;;13.03;6.93;;;;;;;0.21;100.00;99793.80;1748315;80;21121;-70
2020/12/26 07:38:12;;;;;;;11.57;6.23;;;;;;;0.23;100.00;99805.16;1745805;82;21366;-71
2020/12/26 07:40:47;;;;;;;12.80;6.57;;;;;;;0.22;100.00;99825.59;1681503;85;20956;-72
2020/12/26 07:43:16;;;;;;;11.80;5.37;;;;;;;0.20;100.00;99815.55;1710553;83;21714;-73
2020/12/26 07:45:46;;;;;;;6.83;4.07;;;;;;;0.16;100.00;99817.59;1719712;82;21754;-70
2020/12/26 07:48:21;;;;;;;18.60;8.28;;;;;;;0.19;100.00;99832.45;1829461;77;38286;-70
2020/12/26 07:50:49;;;;;;;14.53;7.03;;;;;;;0.17;100.00;99853.84;1852700;76;21556;-70
2020/12/26 07:53:16;;;;;;;9.10;5.17;;;;;;;0.19;100.00;99867.03;1869429;76;21423;-70
2020/12/26 07:55:44;;;;;;;12.20;6.10;;;;;;;0.18;100.00;99862.20;1868651;76;20996;-70
2020/12/26 07:58:13;;;;;;;9.90;5.00;;;;;;;0.18;100.00;99848.06;1846350;77;20989;-71
2020/12/26 08:00:43;;;;;;;7.23;3.67;;;;;;;0.17;100.00;99827.24;1855166;77;20973;-72
2020/12/26 08:03:13;;;;;;;12.63;4.83;;;;;;;0.15;100.00;99826.51;1855303;77;20957;-71
2020/12/26 08:05:48;;;;;;;7.00;4.93;;;;;;;0.17;100.00;99829.91;1854264;77;21956;-71
2020/12/26 08:08:21;;;;;;;12.33;6.50;;;;;;;0.21;100.00;99846.48;1855263;77;20977;-75
2020/12/26 08:10:58;;;;;;;8.13;5.57;;;;;;;0.23;100.00;99853.03;1855386;77;20922;-74
2020/12/26 08:13:27;;;;;;;8.23;5.27;;;;;;;0.22;100.00;99852.68;1802103;79;21028;-73
2020/12/26 08:16:04;;;;;;;7.10;4.43;;;;;;;0.20;100.00;99847.95;1802915;79;21013;-77
2020/12/26 08:18:38;;;;;;;14.00;6.57;;;;;;;0.22;100.00;99846.88;1852212;76;26874;-72
2020/12/26 08:21:07;;;;;;;9.90;5.30;;;;;;;0.17;100.00;99850.34;1720040;80;20947;-74
2020/12/26 08:23:35;;;;;;;11.37;5.73;;;;;;;0.16;100.00;99843.30;1855313;77;22092;-74
2020/12/26 08:26:02;;;;;;;11.30;6.73;;;;;;;0.16;100.00;99856.14;1855254;77;21036;-73
2020/12/26 08:28:30;;;;;;;6.73;3.80;;;;;;;0.16;100.00;99859.26;1855133;77;20981;-73
2020/12/26 08:31:02;;;;;;;4.43;2.80;;;;;;;0.13;100.00;99856.35;1855845;77;21603;-74
2020/12/26 08:33:33;;;;;;;;;;;;;;;0.14;100.00;99851.88;1800083;77;21024;-74
2020/12/26 08:36:17;;;;;;;6.13;4.10;;;;;;;0.16;100.00;99856.14;1836453;77;21472;-74
2020/12/26 08:38:50;;;;;;;6.90;4.03;;;;;;;0.20;100.00;99842.15;1745397;82;21088;-75
2020/12/26 08:41:17;;;;;;;6.12;4.33;;;;;;;0.22;100.00;99845.55;1745481;81;21313;-77
2020/12/26 08:43:46;;;;;;;9.97;4.43;;;;;;;0.22;100.00;99842.88;1746108;81;21250;-74
2020/12/26 08:49:02;;;;;;;4.87;3.50;;;;;;;0.18;100.00;99866.67;1887030;76;26760;-75
2020/12/26 08:51:30;;;;;;;6.87;4.28;;;;;;;0.12;100.00;99884.38;1774636;80;21021;-72
2020/12/26 08:53:58;;;;;;;7.30;4.00;;;;;;;0.13;100.00;99894.06;1778610;80;21208;-72
2020/12/26 08:56:34;;;;;;;5.87;3.93;;;;;;;0.14;100.00;99901.06;1794620;80;21591;-75
2020/12/26 08:59:01;;;;;;;7.40;3.63;;;;;;;0.16;100.00;99893.37;1782202;80;21001;-75
2020/12/26 09:01:30;;;;;;;8.63;5.03;;;;;;;0.22;100.00;99886.77;1805137;79;21638;-72
2020/12/26 09:04:00;;;;;;;10.00;5.40;;;;;;;0.26;100.00;99876.75;1811557;79;20942;-74
2020/12/26 09:06:42;;;;;;;2.97;2.77;;;;;;;0.28;100.00;99879.66;1789237;79;21040;-75
2020/12/26 09:09:19;;;;;;;6.55;4.33;;;;;;;0.30;100.00;99882.22;1763743;81;21092;-72
2020/12/26 09:11:48;;;;;;;15.17;7.00;;;;;;;0.33;100.00;99881.52;1763757;81;21483;-72
2020/12/26 09:14:19;;;;;;;14.37;6.73;;;;;;;0.34;100.00;99893.87;1763622;81;20985;-73
2020/12/26 09:16:59;;;;;;;16.33;7.67;;;;;;;0.40;100.00;99879.27;1763512;81;21025;-73
2020/12/26 09:19:29;;;;;;;12.07;6.37;;;;;;;0.43;100.00;99871.08;1762221;81;22120;-71
2020/12/26 09:22:08;;;;;;;10.30;5.80;;;;;;;0.48;100.00;99869.41;1763619;81;20917;-74
2020/12/26 09:24:36;;;;;;;15.13;5.67;;;;;;;0.49;100.00;99871.95;1763555;81;21570;-73
2020/12/26 09:27:04;;;;;;;11.27;5.70;;;;;;;0.48;100.00;99874.72;1763468;81;21060;-72
2020/12/26 09:29:33;;;;;;;11.00;4.97;;;;;;;0.52;100.00;99876.22;1763645;81;21008;-71
2020/12/26 09:32:07;;;;;;;17.63;6.63;;;;;;;0.57;100.00;99874.08;1763559;81;22175;-75
2020/12/26 09:34:36;;;;;;;7.08;4.08;;;;;;;0.64;100.00;99874.00;1726876;82;21216;-72
2020/12/26 09:37:06;;;;;;;14.57;7.93;;;;;;;0.69;100.00;99865.20;1722485;83;21068;-71
2020/12/26 09:39:35;;;;;;;9.20;5.93;;;;;;;0.79;100.00;99877.84;1722368;83;20974;-72
2020/12/26 09:42:05;;;;;;;9.60;5.47;;;;;;;0.84;100.00;99873.02;1722757;83;20973;-71
2020/12/26 09:44:38;;;;;;;8.27;4.80;;;;;;;0.88;100.00;99866.02;1672010;83;22442;-72
2020/12/26 09:47:13;;;;;;;9.43;5.00;;;;;;;0.97;100.00;99873.80;1733701;82;21563;-73
2020/12/26 09:49:44;;;;;;;6.77;3.57;;;;;;;1.10;100.00;99880.42;1737956;82;20978;-73
2020/12/26 09:52:12;;;;;;;6.47;4.10;;;;;;;1.21;100.00;99886.27;1737761;82;21029;-73
2020/12/26 09:54:40;;;;;;;10.33;6.03;;;;;;;1.27;100.00;99886.64;1738129;82;21199;-72
2020/12/26 09:57:07;;;;;;;6.97;4.60;;;;;;;1.33;100.00;99876.87;1738020;82;21198;-72
2020/12/26 09:59:37;;;;;;;9.10;4.63;;;;;;;1.36;100.00;99870.94;1737512;82;21267;-74
2020/12/26 10:02:05;;;;;;;6.93;4.23;;;;;;;1.42;100.00;99870.48;1719649;82;20994;-77
2020/12/26 10:04:33;;;;;;;7.77;3.50;;;;;;;1.49;100.00;99875.72;1715317;83;21072;-73
2020/12/26 10:07:00;;;;;;;6.53;3.23;;;;;;;1.50;100.00;99850.75;1716592;83;21088;-74
2020/12/26 10:09:28;;;;;;;15.37;5.47;;;;;;;1.52;100.00;99844.81;1716599;83;21282;-73
2020/12/26 10:11:56;;;;;;;18.87;7.63;;;;;;;1.57;100.00;99857.30;1716720;83;21606;-74
2020/12/26 10:14:23;;;;;;;12.27;5.70;;;;;;;1.56;100.00;99853.42;1716534;83;21041;-73
2020/12/26 10:16:54;;;;;;;9.97;5.27;;;;;;;1.57;100.00;99855.13;1716618;83;21049;-75
2020/12/26 10:19:21;;;;;;;3.60;2.97;;;;;;;1.63;100.00;99859.97;1716645;83;21093;-74
2020/12/26 10:21:52;;;;;;;8.20;4.47;;;;;;;1.68;100.00;99865.34;1716600;83;21523;-74
2020/12/26 10:24:20;;;;;;;8.23;4.33;;;;;;;1.67;100.00;99849.46;1716677;83;21041;-73
2020/12/26 10:26:51;;;;;;;8.90;4.17;;;;;;;1.65;100.00;99838.91;1693545;83;21054;-76
2020/12/26 10:29:19;;;;;;;9.40;5.67;;;;;;;1.66;100.00;99846.42;1716721;83;20931;-74
2020/12/26 10:31:47;;;;;;;7.90;4.60;;;;;;;1.63;100.00;99855.98;1716563;83;21049;-71
2020/12/26 10:34:17;;;;;;;8.67;4.30;;;;;;;1.62;100.00;99855.63;1716656;83;22231;-72
2020/12/26 10:36:46;;;;;;;6.33;3.93;;;;;;;1.57;100.00;99871.13;1714189;80;21658;-73
2020/12/26 10:39:13;;;;;;;6.83;3.67;;;;;;;1.52;100.00;99875.45;1792803;80;21013;-73
2020/12/26 10:41:44;;;;;;;11.90;6.03;;;;;;;1.47;100.00;99882.48;1780218;80;21041;-74
2020/12/26 10:44:12;;;;;;;10.70;5.50;;;;;;;1.45;100.00;99888.42;1780260;80;20981;-74
2020/12/26 10:46:42;;;;;;;12.20;5.57;;;;;;;1.41;100.00;99890.94;1779785;80;21206;-72
2020/12/26 10:49:10;;;;;;;9.27;5.43;;;;;;;1.41;100.00;99897.59;1787730;80;21032;-71
2020/12/26 10:51:38;;;;;;;9.67;4.70;;;;;;;1.42;100.00;99902.46;1788066;80;20981;-72
2020/12/26 10:54:07;;;;;;;10.70;4.90;;;;;;;1.40;100.00;99897.70;1788186;80;20945;-75
2020/12/26 10:56:35;;;;;;;6.97;3.70;;;;;;;1.40;100.00;99919.02;1788057;80;20993;-73
2020/12/26 10:59:03;;;;;;;13.67;5.50;;;;;;;1.33;100.00;99910.17;1788092;80;21310;-71
2020/12/26 11:01:32;;;;;;;22.90;9.00;;;;;;;1.32;100.00;99908.45;1792893;80;21013;-72
2020/12/26 11:04:00;;;;;;;20.60;8.07;;;;;;;1.31;100.00;99917.44;1819373;78;21555;-70
2020/12/26 11:06:27;;;;;;;10.33;5.23;;;;;;;1.34;100.00;99912.34;1795835;80;21064;-71
2020/12/26 11:08:55;;;;;;;6.80;4.03;;;;;;;1.36;100.00;99921.06;1813942;78;20968;-70
2020/12/26 11:11:23;;;;;;;9.73;4.93;;;;;;;1.37;100.00;99920.61;1783918;79;21460;-69
2020/12/26 11:13:51;;;;;;;7.80;4.00;;;;;;;1.41;100.00;99922.91;1816141;78;21064;-73
2020/12/26 11:16:19;;;;;;;10.80;5.77;;;;;;;1.42;100.00;99933.94;1786516;79;21427;-70
2020/12/26 11:18:47;;;;;;;6.07;3.83;;;;;;;1.39;100.00;99943.48;1814095;78;20938;-70
2020/12/26 11:21:18;;;;;;;7.23;3.83;;;;;;;1.32;100.00;99948.91;1779149;79;20989;-70
2020/12/26 11:23:45;;;;;;;4.00;3.10;;;;;;;1.26;100.00;99949.38;1815110;78;21736;-74
2020/12/26 11:26:15;;;;;;;6.90;3.40;;;;;;;1.28;100.00;99942.13;1810612;78;21545;-73
2020/12/26 11:28:43;;;;;;;3.83;2.93;;;;;;;1.36;100.00;99938.88;1786632;79;20986;-72
2020/12/26 11:31:12;;;;;;;4.40;2.97;;;;;;;1.34;100.00;99929.66;1778807;80;21017;-72
2020/12/26 11:33:39;;;;;;;4.43;3.37;;;;;;;1.32;100.00;99935.09;1782847;80;20939;-72
2020/12/26 11:36:07;;;;;;;7.33;4.17;;;;;;;1.35;100.00;99944.70;1782533;78;22120;-71
2020/12/26 11:38:36;;;;;;;3.77;2.57;;;;;;;1.35;100.00;99962.02;1792102;78;20962;-75
2020/12/26 11:41:04;;;;;;;4.23;3.30;;;;;;;1.29;100.00;99966.45;1769264;80;21531;-70
2020/12/26 11:43:32;;;;;;;4.70;3.13;;;;;;;1.25;100.00;99973.81;1815889;78;21530;-70
2020/12/26 11:45:59;;;;;;;11.40;4.17;;;;;;;1.22;100.00;99983.39;1786605;79;20936;-70
2020/12/26 11:48:28;;;;;;;7.17;3.87;;;;;;;1.16;100.00;99989.64;1782134;79;21565;-72
2020/12/26 11:50:56;;;;;;;6.30;3.80;;;;;;;1.08;100.00;99985.72;1773818;79;21041;-71